Terminal Aerodrome Forecast
Issued by NWS

Home | Current Version | Previous Version | Text Only | Print | Product List | Glossary On
Versions: 1 2 3 4 5 6 7 8 9 10 11 12
000
FTUS45 KABQ 292340
TAFGUP
TAF
KGUP 292340Z 3000/3024 VRB06KT P6SM SCT100
     FM300100 15007KT P6SM VCSH SCT100 SCT140
      TEMPO 3001/3003 VRB10G19KT BKN090
     FM300400 VRB04KT P6SM SCT110
     FM301900 23010G17KT P6SM SCT070 SCT120 PROB30 3021/3024
      VRB20G32KT -TSRA BKN060CB OVC100=

USA.gov is the U.S. government's official web portal to all federal, state and local government web resources and services.